WetterOnline ( https://www.wetteronline.de )

Wetter aktuell List auf Sylt

Aktuelles Wetter: List/Sylt (29m)

6-stündlich | Neueste Meldungen
Ortszeit Temperatur Wetter
Sa, 20.04. 20:00 5.1° C bedeckt
Sa, 20.04. 14:00 7.7° C bewölkt
Sa, 20.04. 8:00 4.6° C bedeckt
Sa, 20.04. 2:00 4.1° C wolkenlos
Fr, 19.04. 20:00 6.6° C bedeckt
Fr, 19.04. 14:00 7.6° C bedeckt
Fr, 19.04. 8:00 7.1° C leichter Regen
Fr, 19.04. 2:00 5.5° C leichter Regen
Ortszeit Temperatur Wetter
Sa, 20.04. 21:30 4.6° C bewölkt
Sa, 20.04. 21:20 4.6° C bewölkt
Sa, 20.04. 21:10 4.9° C bedeckt
Sa, 20.04. 21:00 5.3° C bedeckt
Sa, 20.04. 20:50 5.3° C bedeckt
Sa, 20.04. 20:40 5.0° C bedeckt
Sa, 20.04. 20:30 5.1° C bedeckt
Sa, 20.04. 20:00 5.1° C bedeckt
Sa, 20.04. 19:30 5.6° C bedeckt
Sa, 20.04. 19:00 5.9° C bedeckt
Sa, 20.04. 18:30 5.4° C leichter Regen
Ortszeit Relative Feuchte Sichtweite
Sa, 20.04. 20:00 68% 35 km
Sa, 20.04. 14:00 53% 65 km
Sa, 20.04. 8:00 83% 60 km
Sa, 20.04. 2:00 80% 55 km
Fr, 19.04. 20:00 67% >70 km
Fr, 19.04. 14:00 82% 55 km
Fr, 19.04. 8:00 93% 8 km
Fr, 19.04. 2:00 89% 11 km
Ortszeit Relative Feuchte Sichtweite
Sa, 20.04. 21:30 71% 30 km
Sa, 20.04. 21:20 71% -
Sa, 20.04. 21:10 68% -
Sa, 20.04. 21:00 69% 30 km
Sa, 20.04. 20:50 69% -
Sa, 20.04. 20:40 72% -
Sa, 20.04. 20:30 76% 30 km
Sa, 20.04. 20:00 68% 35 km
Sa, 20.04. 19:30 73% 27 km
Sa, 20.04. 19:00 73% 28 km
Sa, 20.04. 18:30 78% 30 km
Ortszeit Niederschlagsmenge Niederschlagsart
Sa, 20.04. 20:00 2 l/m2 in 12 Std. Regen
Sa, 20.04. 14:00 0.0 l/m2 in 6 Std. -
Sa, 20.04. 8:00 0.0 l/m2 in 12 Std. -
Sa, 20.04. 2:00 0.0 l/m2 in 6 Std. -
Fr, 19.04. 20:00 0.3 l/m2 in 12 Std. Regen
Fr, 19.04. 14:00 0.3 l/m2 in 6 Std. Regen
Fr, 19.04. 8:00 7 l/m2 in 12 Std. Regen
Fr, 19.04. 2:00 2 l/m2 in 6 Std. Regen
Ortszeit Niederschlagsmenge Niederschlagsart
Sa, 20.04. 21:30 0.0 l/m2 in 30 Min -
Sa, 20.04. 21:20 keine Meldung -
Sa, 20.04. 21:10 keine Meldung -
Sa, 20.04. 21:00 0.0 l/m2 in 1 Std. -
Sa, 20.04. 20:50 keine Meldung -
Sa, 20.04. 20:40 keine Meldung -
Sa, 20.04. 20:30 0.0 l/m2 in 30 Min -
Sa, 20.04. 20:00 0.0 l/m2 in 1 Std. Regen
Sa, 20.04. 19:30 0.0 l/m2 in 30 Min -
Sa, 20.04. 19:00 0.3 l/m2 in 1 Std. Regen
Sa, 20.04. 18:30 0.3 l/m2 in 30 Min -
Ortszeit Stärke Spitze Richtung
km/h Bft. km/h Grad Sektor
Sa, 20.04. 20:00 35 5 57 320° NW
Sa, 20.04. 14:00 20 4 28 330° NW
Sa, 20.04. 8:00 15 3 33 20° N
Sa, 20.04. 2:00 25 4 47 10° N
Fr, 19.04. 20:00 30 5 65 10° N
Fr, 19.04. 14:00 39 6 67 30° NO
Fr, 19.04. 8:00 43 6 54 280° W
Fr, 19.04. 2:00 30 5 46 220° SW
Ortszeit Stärke Spitze Richtung
km/h Bft. km/h Grad Sektor
Sa, 20.04. 21:30 22 4 31 340° N
Sa, 20.04. 21:20 22 4 - 340° N
Sa, 20.04. 21:10 24 4 - 330° NW
Sa, 20.04. 21:00 22 4 37 330° NW
Sa, 20.04. 20:50 22 4 - 330° NW
Sa, 20.04. 20:40 25 4 - 340° N
Sa, 20.04. 20:30 29 5 36 340° N
Sa, 20.04. 20:00 35 5 57 320° NW
Sa, 20.04. 19:30 37 5 57 320° NW
Sa, 20.04. 19:00 31 5 50 320° NW
Sa, 20.04. 18:30 25 4 43 320° NW
Ortszeit Untergrenze Bedeckung Gattung
total tief tief mittel hoch
Sa, 20.04. 20:00 930 m 8/8 8/8 - - -
Sa, 20.04. 14:00 1800 m 8/8 7/8 - - -
Sa, 20.04. 8:00 2100 m 8/8 8/8 - - -
Sa, 20.04. 2:00 - 0/8 0/8 - - -
Fr, 19.04. 20:00 840 m 8/8 8/8 - - -
Fr, 19.04. 14:00 360 m 8/8 8/8 - - -
Fr, 19.04. 8:00 240 m 8/8 8/8 - - -
Fr, 19.04. 2:00 360 m 7/8 7/8 - - -
Ortszeit Bedeckungsgrad in Achtel und Wolkenuntergrenze
Sa, 20.04. 21:30 1(1500m) 7(1800m)
Sa, 20.04. 21:20 1(1500m) 7(1800m)
Sa, 20.04. 21:10 8
Sa, 20.04. 21:00 8(1800m)
Sa, 20.04. 20:50 8(1800m)
Sa, 20.04. 20:40 8
Sa, 20.04. 20:30 1(960m) 4(1440m) 8(1800m)
Sa, 20.04. 20:00 3(930m) 7(1500m) 8(1800m)
Sa, 20.04. 19:30 1(1020m) 8(1800m)
Sa, 20.04. 19:00 2(870m) 6(1290m) 8(1500m)
Sa, 20.04. 18:30 1(480m) 7(1110m) 8(1470m)
Ortszeit Luftdruck NN (hPa) Tendenz (hPa in 3 Std.)
Sa, 20.04. 20:00 1018 - 0,7
Sa, 20.04. 14:00 1019 + 0,8
Sa, 20.04. 8:00 1016 + 2,2
Sa, 20.04. 2:00 1012 + 2,1
Fr, 19.04. 20:00 1007 + 4,0
Fr, 19.04. 14:00 999 + 1,2
Fr, 19.04. 8:00 999 - 2,2
Fr, 19.04. 2:00 1007 - 4,3
Ortszeit Luftdruck NN (hPa) Tendenz (hPa in 3 Std.)
Sa, 20.04. 21:30 1018 - 0,2
Sa, 20.04. 21:20 1018 keine Meldung
Sa, 20.04. 21:10 1018 keine Meldung
Sa, 20.04. 21:00 1018 - 0,6
Sa, 20.04. 20:50 1018 keine Meldung
Sa, 20.04. 20:40 1018 keine Meldung
Sa, 20.04. 20:30 1018 - 1,0
Sa, 20.04. 20:00 1018 - 0,7
Sa, 20.04. 19:30 1018 - 0,7
Sa, 20.04. 19:00 1018 - 0,8
Sa, 20.04. 18:30 1019 - 0,7
Ortszeit Schneehöhe (cm)
Sa, 20.04. 20:00 0
Sa, 20.04. 14:00 0
Sa, 20.04. 8:00 0
Sa, 20.04. 2:00 0
Fr, 19.04. 20:00 0
Fr, 19.04. 14:00 0
Fr, 19.04. 8:00 0
Fr, 19.04. 2:00 0
Ortszeit Schneehöhe (cm)
Sa, 20.04. 21:30 0
Sa, 20.04. 21:20 0
Sa, 20.04. 21:10 -
Sa, 20.04. 21:00 0
Sa, 20.04. 20:50 0
Sa, 20.04. 20:40 -
Sa, 20.04. 20:30 0
Sa, 20.04. 20:00 0
Sa, 20.04. 19:30 0
Sa, 20.04. 19:00 0
Sa, 20.04. 18:30 0
Link zu dieser Seite / Seite empfehlen

Das Wetter in ...